PWSweather.com
Personal Weather Stations
Station Observations
RADILLY
Mcmurray, PA 15317

Mcmurray, PA 15317

Lat: 40.288, Lon: -80.095

Elevation: 1061

Station Type: Ambient WS-2080

http://dillys.org/wx/

Latest ConditionsUpdated 8:45:00 AM EST Tuesday, Jan 23, 2018
Currently Today's Max Today's Min Today's Average
Temperature 46.0°F7.8°C 55.8°F13.2°C 46.0°F7.8°C 50.2°F10.1°C
Dew Point 34.5°F1.4°C 45.6°F7.6°C 33.7°F0.9°C 42.0°F5.6°C
Winds 0.7 mph SW1.1 kmh SW 6.9 mph S11.1 kmh S - 1.7 mph 2.7 kmh
Wind Gusts 3.8 mph6.1 kmh 16.8 mph27.0 kmh - -
Humidity 64% 89% 59% 74%
Pressure 29.92 in1013.2 mb 29.92 in1013.2 mb 29.81 in1009.5 mb -
Precipitation - 0.11 in2.8 mm - -
Hour Temp Dew Point Humidity Winds Wind Gusts Pressure Precip Precip Rate Daily Precip Total
08:45 AM 46.0°F7.8°C 34.5°F1.4°C 64% 0.7 mph SW1.1 kmh SW 3.8 mph6.1 kmh 29.92 in1013.2 mb 0.00 in0.0 mm 0.00 in0.0 mm 0.11 in2.8 mm
08:30 AM 46.0°F7.8°C 33.7°F0.9°C 62% 1.6 mph SW2.6 kmh SW 5.4 mph8.7 kmh 29.91 in1012.9 mb 0.00 in0.0 mm 0.00 in0.0 mm 0.11 in2.8 mm
08:15 AM 46.6°F8.1°C 35.4°F1.9°C 65% 1.6 mph SW2.6 kmh SW 3.8 mph6.1 kmh 29.91 in1012.9 mb 0.00 in0.0 mm 0.00 in0.0 mm 0.11 in2.8 mm
08:00 AM 46.9°F8.3°C 36.2°F2.3°C 66% 3.8 mph WSW6.1 kmh WSW 6.0 mph9.7 kmh 29.91 in1012.9 mb 0.00 in0.0 mm 0.00 in0.0 mm 0.11 in2.8 mm
07:45 AM 47.1°F8.4°C 38.2°F3.4°C 71% 2.2 mph WSW3.5 kmh WSW 7.6 mph12.2 kmh 29.91 in1012.9 mb 0.00 in0.0 mm 0.00 in0.0 mm 0.11 in2.8 mm
07:30 AM 46.6°F8.1°C 39.1°F3.9°C 75% 2.2 mph SSW3.5 kmh SSW 3.8 mph6.1 kmh 29.91 in1012.9 mb 0.00 in0.0 mm 0.00 in0.0 mm 0.11 in2.8 mm
07:15 AM 47.1°F8.4°C 39.6°F4.2°C 75% 0.7 mph SW1.1 kmh SW 4.5 mph7.2 kmh 29.89 in1012.2 mb 0.00 in0.0 mm 0.00 in0.0 mm 0.11 in2.8 mm
07:00 AM 48.0°F8.9°C 40.5°F4.7°C 75% 2.2 mph SW3.5 kmh SW 3.1 mph5.0 kmh 29.87 in1011.5 mb 0.00 in0.0 mm 0.00 in0.0 mm 0.11 in2.8 mm
06:45 AM 48.6°F9.2°C 41.3°F5.2°C 76% 3.8 mph WSW6.1 kmh WSW 5.4 mph8.7 kmh 29.88 in1011.9 mb 0.00 in0.0 mm 0.00 in0.0 mm 0.11 in2.8 mm
06:30 AM 48.7°F9.3°C 44.7°F7.1°C 86% 2.2 mph SW3.5 kmh SW 5.4 mph8.7 kmh 29.89 in1012.2 mb 0.00 in0.0 mm 0.00 in0.0 mm 0.11 in2.8 mm
06:15 AM 48.6°F9.2°C 45.2°F7.3°C 88% 2.2 mph SW3.5 kmh SW 4.5 mph7.2 kmh 29.89 in1012.2 mb 0.00 in0.0 mm 0.00 in0.0 mm 0.11 in2.8 mm
06:00 AM 48.7°F9.3°C 45.6°F7.6°C 89% 2.2 mph S3.5 kmh S 3.1 mph5.0 kmh 29.89 in1012.2 mb 0.00 in0.0 mm 0.00 in0.0 mm 0.11 in2.8 mm
05:45 AM 48.7°F9.3°C 45.3°F7.4°C 88% Calm Calm 2.2 mph3.5 kmh 29.89 in1012.2 mb 0.01 in0.3 mm 0.00 in0.0 mm 0.11 in2.8 mm
05:30 AM 48.7°F9.3°C 45.3°F7.4°C 88% 1.6 mph SW2.6 kmh SW 3.1 mph5.0 kmh 29.88 in1011.9 mb 0.01 in0.3 mm 0.00 in0.0 mm 0.11 in2.8 mm
05:15 AM 48.9°F9.4°C 45.5°F7.5°C 88% Calm Calm 2.2 mph3.5 kmh 29.88 in1011.9 mb 0.02 in0.5 mm 0.00 in0.0 mm 0.11 in2.8 mm
05:00 AM 48.9°F9.4°C 45.2°F7.3°C 87% 1.6 mph SW2.6 kmh SW 2.2 mph3.5 kmh 29.88 in1011.9 mb 0.04 in1.0 mm 0.03 in0.8 mm 0.11 in2.8 mm
04:45 AM 48.9°F9.4°C 44.9°F7.2°C 86% 1.6 mph SW2.6 kmh SW 2.2 mph3.5 kmh 29.88 in1011.9 mb 0.02 in0.5 mm 0.00 in0.0 mm 0.09 in2.3 mm
04:30 AM 49.1°F9.5°C 44.8°F7.1°C 85% 1.6 mph SW2.6 kmh SW 2.2 mph3.5 kmh 29.88 in1011.9 mb 0.02 in0.5 mm 0.04 in1.0 mm 0.09 in2.3 mm
04:15 AM 49.1°F9.5°C 44.5°F6.9°C 84% 0.7 mph SW1.1 kmh SW 1.6 mph2.6 kmh 29.88 in1011.9 mb 0.01 in0.3 mm 0.00 in0.0 mm 0.07 in1.8 mm
04:00 AM 49.3°F9.6°C 44.3°F6.8°C 83% 0.7 mph SW1.1 kmh SW 1.6 mph2.6 kmh 29.87 in1011.5 mb 0.01 in0.3 mm 0.00 in0.0 mm 0.07 in1.8 mm
03:45 AM 49.5°F9.7°C 44.5°F6.9°C 83% Calm Calm 2.2 mph3.5 kmh 29.88 in1011.9 mb 0.01 in0.3 mm 0.00 in0.0 mm 0.07 in1.8 mm
03:30 AM 50.0°F10.0°C 44.4°F6.9°C 81% 1.6 mph WSW2.6 kmh WSW 4.5 mph7.2 kmh 29.89 in1012.2 mb 0.07 in1.8 mm 0.04 in1.0 mm 0.07 in1.8 mm
03:15 AM 50.0°F10.0°C 44.1°F6.7°C 80% 0.7 mph SW1.1 kmh SW 5.4 mph8.7 kmh 29.90 in1012.5 mb 0.06 in1.5 mm 0.00 in0.0 mm 0.06 in1.5 mm
03:00 AM 50.4°F10.2°C 44.4°F6.9°C 80% 3.8 mph WSW6.1 kmh WSW 9.2 mph14.8 kmh 29.90 in1012.5 mb 0.06 in1.5 mm 0.00 in0.0 mm 0.06 in1.5 mm
02:45 AM 50.4°F10.2°C 43.1°F6.2°C 76% 5.4 mph WSW8.7 kmh WSW 16.8 mph27.0 kmh 29.90 in1012.5 mb 0.06 in1.5 mm 0.24 in6.1 mm 0.06 in1.5 mm
02:30 AM 54.5°F12.5°C 42.6°F5.9°C 64% 6.9 mph S11.1 kmh S 11.4 mph18.3 kmh 29.92 in1013.2 mb 0.00 in0.0 mm 0.00 in0.0 mm 0.00 in0.0 mm
02:15 AM 54.5°F12.5°C 42.2°F5.7°C 63% 1.6 mph SE2.6 kmh SE 3.1 mph5.0 kmh 29.81 in1009.5 mb 0.00 in0.0 mm 0.00 in0.0 mm 0.00 in0.0 mm
02:00 AM 54.5°F12.5°C 42.6°F5.9°C 64% 2.2 mph SE3.5 kmh SE 3.8 mph6.1 kmh 29.83 in1010.2 mb 0.00 in0.0 mm 0.00 in0.0 mm 0.00 in0.0 mm
01:45 AM 53.4°F11.9°C 41.9°F5.5°C 65% 0.7 mph SE1.1 kmh SE 2.2 mph3.5 kmh 29.84 in1010.5 mb 0.00 in0.0 mm 0.00 in0.0 mm 0.00 in0.0 mm
01:30 AM 53.6°F12.0°C 41.7°F5.4°C 64% 1.6 mph SE2.6 kmh SE 3.8 mph6.1 kmh 29.84 in1010.5 mb 0.00 in0.0 mm 0.00 in0.0 mm 0.00 in0.0 mm
01:15 AM 53.6°F12.0°C 41.3°F5.2°C 63% Calm Calm 2.2 mph3.5 kmh 29.85 in1010.8 mb 0.00 in0.0 mm 0.00 in0.0 mm 0.00 in0.0 mm
01:00 AM 53.8°F12.1°C 41.1°F5.1°C 62% 0.7 mph SE1.1 kmh SE 3.1 mph5.0 kmh 29.86 in1011.2 mb 0.00 in0.0 mm 0.00 in0.0 mm 0.00 in0.0 mm
12:45 AM 54.3°F12.4°C 41.6°F5.3°C 62% Calm Calm 3.1 mph5.0 kmh 29.86 in1011.2 mb 0.00 in0.0 mm 0.00 in0.0 mm 0.00 in0.0 mm
12:30 AM 54.0°F12.2°C 40.8°F4.9°C 61% 0.7 mph SE1.1 kmh SE 1.6 mph2.6 kmh 29.88 in1011.9 mb 0.00 in0.0 mm 0.00 in0.0 mm 0.00 in0.0 mm
12:15 AM 55.0°F12.8°C 41.4°F5.2°C 60% 0.7 mph SE1.1 kmh SE 3.1 mph5.0 kmh 29.89 in1012.2 mb 0.00 in0.0 mm 0.00 in0.0 mm 0.00 in0.0 mm
12:00 AM 55.8°F13.2°C 41.6°F5.3°C 59% 3.1 mph SE5.0 kmh SE 4.5 mph7.2 kmh 29.90 in1012.5 mb 0.00 in0.0 mm 0.00 in0.0 mm 0.00 in0.0 mm